Time;durP1;ratioP1;P1;durP2;ratioP2;P2;SDS_P1;SDS_P2;PMS_P1;PMS_P2;Temp;Humidity;BMP_temperature;BMP_pressure;BME280_temperature;BME280_humidity;BME280_pressure;Samples;Min_cycle;Max_cycle;Signal;HPM_P1;HPM_P2
2022/02/19 00:00:31;;;;;;;3.43;1.20;;;7.50;54.20;;;6.16;52.62;97147.94;5035157;28;20541;-70
2022/02/19 00:02:58;;;;;;;3.70;0.83;;;7.50;53.40;;;6.14;51.73;97142.78;5035261;28;20524;-70
2022/02/19 00:05:25;;;;;;;5.50;1.60;;;7.50;52.60;;;5.85;51.67;97109.16;5033981;28;20502;-69
2022/02/19 00:07:52;;;;;;;7.60;1.07;;;7.40;52.40;;;6.03;51.30;97159.50;5034939;28;20902;-69
2022/02/19 00:10:19;;;;;;;4.70;1.20;;;7.40;52.10;;;6.05;51.00;97141.34;5035278;28;20538;-69
2022/02/19 00:12:46;;;;;;;3.27;1.27;;;7.50;52.00;;;6.06;51.89;97143.00;5033332;28;20473;-69
2022/02/19 00:15:15;;;;;;;6.07;0.77;;;7.40;52.20;;;5.98;52.41;97140.47;5017720;28;20910;-69
2022/02/19 00:17:42;;;;;;;3.90;1.27;;;7.30;52.50;;;5.97;52.96;97150.41;5033787;28;20450;-69
2022/02/19 00:20:12;;;;;;;3.70;1.10;;;7.30;52.70;;;5.96;53.26;97149.56;5034927;28;20533;-69
2022/02/19 00:22:40;;;;;;;6.20;1.63;;;7.30;52.90;;;5.89;52.80;97154.13;5033316;28;20445;-70
2022/02/19 00:25:09;;;;;;;4.97;1.50;;;7.30;53.50;;;5.72;53.25;97147.50;5033841;28;20466;-70
2022/02/19 00:27:36;;;;;;;3.67;1.20;;;7.20;53.30;;;5.87;51.99;97169.59;5035122;28;20446;-70
2022/02/19 00:30:04;;;;;;;7.10;1.20;;;7.20;52.20;;;5.91;50.62;97178.84;5035126;28;20441;-70
2022/02/19 00:32:32;;;;;;;3.30;1.20;;;7.20;51.40;;;5.76;50.78;97162.16;5033302;28;20541;-68
2022/02/19 00:34:59;;;;;;;6.20;1.23;;;7.30;51.20;;;5.85;50.73;97195.78;5034731;28;20435;-69
2022/02/19 00:37:26;;;;;;;5.47;1.87;;;7.20;50.90;;;5.79;49.81;97191.22;5034316;28;20974;-69
2022/02/19 00:39:53;;;;;;;2.80;1.07;;;7.20;50.60;;;5.78;50.48;97205.66;5033576;28;20445;-69
2022/02/19 00:42:20;;;;;;;2.70;0.97;;;7.10;50.80;;;5.62;51.03;97202.34;5032980;28;20448;-70
2022/02/19 00:44:47;;;;;;;3.23;1.43;;;7.00;51.00;;;5.64;51.11;97200.28;5034637;28;20462;-69
2022/02/19 00:47:15;;;;;;;2.73;1.10;;;7.00;51.20;;;5.61;52.29;97219.44;5033119;28;20534;-69
2022/02/19 00:49:43;;;;;;;2.87;1.13;;;6.90;51.70;;;5.47;52.63;97209.72;5033833;28;20439;-69
2022/02/19 00:52:10;;;;;;;3.97;1.47;;;6.80;52.10;;;5.04;54.85;97151.94;5034201;28;20438;-69
2022/02/19 00:54:37;;;;;;;7.00;1.90;;;6.80;53.40;;;5.47;56.00;97225.81;5033190;28;20456;-69
2022/02/19 00:57:04;;;;;;;4.17;1.47;;;6.80;54.30;;;5.42;57.19;97212.19;5032268;28;20525;-69
2022/02/19 00:59:31;;;;;;;4.90;1.60;;;6.80;55.70;;;5.24;58.18;97208.22;5034623;28;20484;-71
2022/02/19 01:01:58;;;;;;;3.17;0.90;;;6.80;56.30;;;5.41;58.09;97222.06;5034352;28;20494;-69
2022/02/19 01:04:25;;;;;;;6.53;1.50;;;6.80;56.30;;;5.44;57.11;97231.56;5034414;28;20481;-69
2022/02/19 01:06:54;;;;;;;1.50;1.00;;;6.80;55.90;;;5.16;56.87;97206.56;5033504;28;20839;-69
2022/02/19 01:09:21;;;;;;;7.10;1.17;;;6.80;55.50;;;5.35;54.95;97238.97;5034137;28;20957;-69
2022/02/19 01:11:48;;;;;;;7.60;2.07;;;6.80;54.30;;;5.39;55.48;97249.09;5033622;28;20447;-69
2022/02/19 01:14:15;;;;;;;6.07;1.63;;;6.80;54.00;;;5.25;56.12;97250.88;5032900;28;20493;-71
2022/02/19 01:16:42;;;;;;;5.53;1.47;;;6.70;54.30;;;5.35;55.09;97255.84;5034583;28;20455;-71
2022/02/19 01:19:09;;;;;;;3.77;1.40;;;6.70;53.60;;;5.40;54.47;97244.53;5033302;28;20435;-69
2022/02/19 01:21:36;;;;;;;5.23;1.30;;;6.70;53.30;;;5.38;53.79;97262.66;5032577;28;20529;-69
2022/02/19 01:24:05;;;;;;;6.60;1.33;;;6.70;53.20;;;5.39;54.37;97264.31;5032632;28;20914;-69
2022/02/19 01:26:33;;;;;;;4.80;1.33;;;6.70;53.00;;;5.31;53.92;97248.44;5034025;28;20918;-70
2022/02/19 01:29:01;;;;;;;5.60;1.47;;;6.70;53.30;;;5.36;53.80;97256.69;5034049;28;20439;-69
2022/02/19 01:31:28;;;;;;;6.93;2.00;;;6.70;53.00;;;5.33;54.92;97268.63;5032434;28;20484;-70
2022/02/19 01:33:55;;;;;;;4.80;1.23;;;6.70;53.20;;;5.28;54.42;97271.09;5032692;28;20477;-70
2022/02/19 01:36:22;;;;;;;4.80;1.33;;;6.60;53.40;;;5.31;54.33;97273.34;5032146;28;20577;-70
2022/02/19 01:38:49;;;;;;;5.73;1.30;;;6.60;53.30;;;5.23;55.67;97266.31;5034085;28;20529;-70
2022/02/19 01:41:18;;;;;;;9.83;2.03;;;6.60;53.70;;;5.17;55.48;97263.59;5032521;28;20450;-69
2022/02/19 01:43:45;;;;;;;6.20;2.30;;;6.60;53.90;;;4.82;55.65;97217.13;5033130;28;20530;-70
2022/02/19 01:46:12;;;;;;;7.80;1.63;;;6.50;54.00;;;5.11;56.36;97262.56;5032466;28;20488;-70
2022/02/19 01:48:39;;;;;;;4.63;1.50;;;6.50;54.50;;;5.12;56.57;97269.56;5033668;28;20473;-71
2022/02/19 01:51:07;;;;;;;5.80;1.87;;;6.50;54.30;;;5.09;55.36;97259.25;5032338;28;20540;-71
2022/02/19 01:53:34;;;;;;;9.67;1.47;;;6.50;54.30;;;5.24;55.65;97275.19;5031941;28;20940;-68
2022/02/19 01:56:01;;;;;;;7.80;1.30;;;6.60;54.10;;;5.25;55.26;97292.91;5034395;28;20512;-69
2022/02/19 01:58:30;;;;;;;3.27;0.97;;;6.60;53.90;;;4.92;55.71;97235.47;5040567;28;20450;-70
2022/02/19 02:00:56;;;;;;;4.80;1.13;;;6.60;54.10;;;5.13;55.42;97278.44;5043308;28;20449;-70
2022/02/19 02:03:23;;;;;;;5.90;1.50;;;6.50;54.10;;;5.11;56.29;97281.28;5037873;28;20534;-70
2022/02/19 02:05:50;;;;;;;2.60;1.23;;;6.50;54.40;;;4.96;56.76;97263.50;5032590;28;20491;-70
2022/02/19 02:08:17;;;;;;;2.83;1.00;;;6.50;54.50;;;5.04;55.82;97281.25;5037097;28;20545;-70
2022/02/19 02:10:46;;;;;;;3.70;1.60;;;6.50;54.30;;;5.08;55.67;97306.63;5037780;28;20489;-71
2022/02/19 02:13:13;;;;;;;4.87;1.40;;;6.50;54.20;;;5.05;56.21;97293.63;5036746;28;20446;-68
2022/02/19 02:15:42;;;;;;;6.00;1.37;;;6.40;54.10;;;5.08;55.45;97300.44;5037733;28;20521;-70
2022/02/19 02:18:09;;;;;;;9.70;1.37;;;6.50;53.80;;;5.13;55.31;97307.88;5035912;28;20434;-69
2022/02/19 02:20:36;;;;;;;4.67;1.30;;;6.50;53.80;;;4.96;55.47;97302.84;5035883;28;20550;-70
2022/02/19 02:23:04;;;;;;;8.93;1.87;;;6.40;53.80;;;4.89;56.35;97310.00;5036170;28;20431;-69
2022/02/19 02:25:33;;;;;;;4.70;1.50;;;6.30;53.80;;;4.87;56.90;97315.56;5036102;28;20553;-70
2022/02/19 02:28:01;;;;;;;3.10;1.43;;;6.30;54.30;;;4.81;56.32;97317.19;5037307;28;20448;-69
2022/02/19 02:30:28;;;;;;;8.07;1.80;;;6.20;54.30;;;4.75;55.82;97336.69;5037503;28;20458;-69
2022/02/19 02:32:55;;;;;;;5.80;1.30;;;6.10;53.80;;;4.36;55.07;97253.25;5035570;28;20450;-69
2022/02/19 02:35:22;;;;;;;7.93;2.00;;;6.20;53.60;;;4.78;55.11;97332.78;5036327;28;20461;-69
2022/02/19 02:37:49;;;;;;;3.30;1.30;;;6.20;53.20;;;5.00;54.65;97344.25;5035990;28;20447;-69
2022/02/19 02:40:17;;;;;;;4.80;1.30;;;6.30;52.90;;;5.04;55.10;97328.66;5052063;28;20800;-69
2022/02/19 02:42:44;;;;;;;5.33;2.00;;;6.40;53.10;;;4.99;54.62;97342.63;5036740;28;20522;-70
2022/02/19 02:45:11;;;;;;;8.90;1.80;;;6.40;53.10;;;4.99;55.29;97336.41;5035283;28;20772;-70
2022/02/19 02:47:41;;;;;;;8.40;1.60;;;6.30;53.00;;;5.01;54.45;97345.91;5035434;28;20533;-69
2022/02/19 02:50:10;;;;;;;4.23;1.50;;;6.40;52.70;;;5.00;54.53;97363.00;5037145;28;20430;-70
2022/02/19 02:52:38;;;;;;;10.20;1.80;;;6.40;52.80;;;5.01;54.26;97355.81;5036737;28;20438;-70
2022/02/19 02:55:07;;;;;;;5.30;1.30;;;6.40;52.80;;;4.97;54.99;97352.69;5036777;28;20941;-70
2022/02/19 02:57:36;;;;;;;5.90;1.23;;;6.30;52.90;;;4.93;55.37;97354.13;5035457;28;20770;-70
2022/02/19 03:00:06;;;;;;;5.17;2.20;;;6.30;53.00;;;4.90;54.44;97349.13;5035741;28;20464;-69
2022/02/19 03:02:34;;;;;;;6.30;1.53;;;6.40;52.90;;;5.00;54.75;97356.81;5036322;28;20856;-69
2022/02/19 03:05:01;;;;;;;4.00;1.50;;;6.30;53.00;;;4.92;54.91;97368.50;5037086;28;20466;-69
2022/02/19 03:07:30;;;;;;;6.17;1.30;;;6.30;53.30;;;4.98;55.55;97357.03;5035223;28;20866;-68
2022/02/19 03:09:57;;;;;;;10.27;1.80;;;6.30;53.10;;;4.87;55.47;97342.34;5036767;28;20446;-69
2022/02/19 03:12:24;;;;;;;8.07;1.80;;;6.30;53.30;;;4.92;55.87;97357.78;5035440;28;20462;-69
2022/02/19 03:14:53;;;;;;;4.97;0.90;;;6.30;53.40;;;4.88;55.31;97357.38;5037055;28;20559;-69
2022/02/19 03:17:20;;;;;;;6.67;2.10;;;6.30;53.50;;;4.71;56.37;97359.50;5034811;28;20855;-69
2022/02/19 03:19:47;;;;;;;5.40;1.70;;;6.10;54.00;;;4.67;56.56;97372.44;5033724;28;20526;-69
2022/02/19 03:22:15;;;;;;;4.50;1.30;;;6.10;54.20;;;4.70;56.66;97354.34;5036167;28;20434;-69
2022/02/19 03:24:43;;;;;;;2.73;1.10;;;6.10;53.80;;;4.72;56.99;97374.53;5034550;28;20961;-70
2022/02/19 03:27:10;;;;;;;7.90;1.53;;;6.10;54.10;;;4.65;57.22;97368.31;5035792;28;20936;-70
2022/02/19 03:29:37;;;;;;;5.73;1.80;;;6.00;54.10;;;4.60;57.99;97381.44;5034985;28;20541;-69
2022/02/19 03:32:07;;;;;;;4.53;1.50;;;6.00;54.40;;;4.45;57.56;97346.75;5035046;28;20475;-68
2022/02/19 03:34:34;;;;;;;7.63;1.63;;;5.90;54.60;;;4.49;58.72;97374.75;5034654;28;20475;-69
2022/02/19 03:37:01;;;;;;;7.50;1.43;;;5.90;55.00;;;4.46;58.91;97389.34;5035110;28;20754;-70
2022/02/19 03:39:28;;;;;;;4.93;1.67;;;5.90;55.50;;;4.48;59.20;97395.34;5035864;28;20537;-69
2022/02/19 03:41:55;;;;;;;6.63;1.30;;;5.80;55.40;;;4.52;58.06;97372.53;5035867;28;20446;-70
2022/02/19 03:44:22;;;;;;;10.53;2.17;;;5.90;55.10;;;4.56;57.42;97409.59;5035301;28;20910;-69
2022/02/19 03:46:49;;;;;;;3.63;1.50;;;5.90;55.00;;;4.52;57.24;97423.38;5034276;28;20549;-69
2022/02/19 03:49:18;;;;;;;4.70;1.87;;;5.90;54.70;;;4.19;57.14;97361.50;5034279;28;20474;-70
2022/02/19 03:51:45;;;;;;;6.60;1.50;;;5.90;54.30;;;4.43;56.05;97403.09;5033957;28;20504;-70
2022/02/19 03:54:12;;;;;;;5.03;1.20;;;6.00;53.70;;;4.58;55.89;97431.63;5034535;28;20788;-70
2022/02/19 03:56:39;;;;;;;4.53;1.50;;;6.00;53.50;;;4.57;55.43;97432.66;5034340;28;20492;-69
2022/02/19 03:59:06;;;;;;;5.00;1.60;;;6.00;53.10;;;4.50;55.58;97448.63;5037355;28;20442;-69
2022/02/19 04:01:34;;;;;;;10.47;2.30;;;5.90;53.20;;;4.45;56.26;97433.16;5041149;28;20453;-70
2022/02/19 04:04:00;;;;;;;6.77;1.77;;;5.80;53.30;;;4.42;56.37;97441.56;5035819;28;20484;-70
2022/02/19 04:06:29;;;;;;;5.57;1.47;;;5.80;53.60;;;4.36;56.72;97461.06;5033670;28;20474;-69
2022/02/19 04:08:56;;;;;;;6.33;1.50;;;5.80;53.70;;;4.29;57.23;97460.16;5036408;28;20449;-69
2022/02/19 04:11:23;;;;;;;3.53;1.33;;;5.70;54.10;;;4.27;56.91;97446.97;5033772;28;20482;-70
2022/02/19 04:13:50;;;;;;;12.03;2.20;;;5.70;53.80;;;4.19;56.73;97449.75;5033648;28;20442;-70
2022/02/19 04:16:17;;;;;;;4.80;1.50;;;5.60;53.80;;;3.58;57.77;97368.88;5035283;28;20926;-70
2022/02/19 04:18:44;;;;;;;8.73;1.87;;;5.50;53.90;;;4.00;58.31;97465.38;5035262;28;20442;-70
2022/02/19 04:21:11;;;;;;;5.70;1.70;;;5.50;54.20;;;4.03;58.08;97467.69;5033853;28;20781;-69
2022/02/19 04:23:39;;;;;;;10.17;2.33;;;5.40;54.00;;;4.01;57.22;97475.06;5034060;28;20533;-70
2022/02/19 04:26:07;;;;;;;5.03;1.97;;;5.40;53.90;;;3.92;57.13;97465.47;5034921;28;20820;-70
2022/02/19 04:28:34;;;;;;;5.17;1.67;;;5.40;53.70;;;3.99;57.74;97478.91;5034821;28;20442;-70
2022/02/19 04:31:01;;;;;;;6.73;1.93;;;5.40;53.70;;;3.96;57.07;97494.31;5034947;28;20470;-69
2022/02/19 04:33:29;;;;;;;9.40;2.10;;;5.40;53.70;;;3.95;57.01;97491.84;5033561;28;20509;-68
2022/02/19 04:35:56;;;;;;;7.70;2.00;;;5.40;53.60;;;3.90;57.12;97494.22;5035142;28;20545;-68
2022/02/19 04:38:24;;;;;;;6.33;1.80;;;5.30;53.60;;;3.43;57.69;97419.63;5035359;28;20443;-70
2022/02/19 04:40:53;;;;;;;7.20;1.73;;;5.20;53.70;;;3.75;57.94;97497.75;5033120;28;20442;-70
2022/02/19 04:43:20;;;;;;;8.87;2.07;;;5.20;53.70;;;3.78;57.33;97497.38;5033242;28;20929;-70
2022/02/19 04:45:47;;;;;;;5.73;1.70;;;5.20;53.40;;;3.71;57.58;97504.47;5034258;28;20549;-69
2022/02/19 04:48:14;;;;;;;8.83;1.57;;;5.20;53.40;;;3.65;59.57;97507.91;5033126;28;20541;-69
2022/02/19 04:50:41;;;;;;;14.00;1.90;;;5.10;54.00;;;3.32;57.69;97458.31;5032291;28;20470;-70
2022/02/19 04:53:09;;;;;;;7.40;1.73;;;5.10;53.60;;;3.57;57.22;97513.31;5032489;28;20951;-70
2022/02/19 04:55:36;;;;;;;5.70;1.60;;;5.00;53.50;;;3.50;58.42;97511.38;5034316;28;20445;-69
2022/02/19 04:58:05;;;;;;;5.73;1.47;;;5.00;53.70;;;3.48;57.81;97512.56;5035605;28;20514;-70
2022/02/19 05:00:32;;;;;;;11.77;2.00;;;4.90;53.80;;;3.46;57.89;97530.63;5033156;28;20443;-70
2022/02/19 05:02:59;;;;;;;6.10;2.33;;;4.90;53.80;;;3.52;58.30;97532.56;5032693;28;20452;-70
2022/02/19 05:05:26;;;;;;;11.60;1.60;;;4.90;53.70;;;3.45;57.90;97519.09;5032887;28;20462;-70
2022/02/19 05:07:53;;;;;;;5.13;1.70;;;5.00;53.50;;;3.50;58.42;97537.25;5034385;28;20508;-70
2022/02/19 05:10:20;;;;;;;8.93;1.63;;;4.90;53.90;;;3.49;58.03;97541.78;5032945;28;20449;-69
2022/02/19 05:12:48;;;;;;;4.90;1.67;;;5.00;53.70;;;3.53;58.29;97563.59;5032876;28;20545;-71
2022/02/19 05:15:17;;;;;;;7.33;1.77;;;5.00;53.80;;;3.49;58.20;97536.44;5034193;28;20450;-70
2022/02/19 05:17:47;;;;;;;7.17;1.50;;;5.00;54.10;;;3.55;57.74;97558.91;5032487;28;20832;-68
2022/02/19 05:20:14;;;;;;;6.20;1.30;;;5.00;53.80;;;3.40;58.94;97549.00;5034046;28;20473;-69
2022/02/19 05:22:41;;;;;;;3.50;1.30;;;5.00;54.00;;;3.46;58.48;97565.34;5033568;28;20446;-69
2022/02/19 05:25:09;;;;;;;6.23;1.50;;;4.90;54.00;;;3.45;58.61;97574.38;5032667;28;20520;-69
2022/02/19 05:27:36;;;;;;;6.77;2.43;;;4.90;54.10;;;3.40;58.63;97570.38;5033970;28;20486;-68
2022/02/19 05:30:05;;;;;;;7.10;1.90;;;4.80;54.10;;;3.36;58.97;97585.09;5032571;28;20477;-69
2022/02/19 05:32:34;;;;;;;5.30;1.20;;;4.80;54.20;;;3.33;59.37;97573.94;5033580;28;20473;-67
2022/02/19 05:35:01;;;;;;;6.77;1.83;;;4.80;54.30;;;3.16;59.35;97565.25;5034921;28;20920;-70
2022/02/19 05:37:30;;;;;;;7.10;2.10;;;4.70;54.70;;;3.28;59.55;97579.84;5034726;28;20476;-69
2022/02/19 05:39:57;;;;;;;5.30;1.40;;;4.70;54.50;;;3.31;59.56;97587.50;5034953;28;20817;-69
2022/02/19 05:42:24;;;;;;;6.87;1.97;;;4.70;54.60;;;3.28;59.63;97587.88;5038097;28;20439;-69
2022/02/19 05:44:52;;;;;;;5.73;1.50;;;4.70;54.70;;;3.09;60.09;97579.31;5033673;28;20530;-69
2022/02/19 05:47:19;;;;;;;4.37;1.10;;;4.70;54.80;;;3.10;59.79;97590.81;5038772;28;20462;-68
2022/02/19 05:49:49;;;;;;;4.23;1.40;;;4.70;55.00;;;3.11;60.24;97620.03;5034838;28;20497;-69
2022/02/19 05:52:17;;;;;;;3.60;1.50;;;4.60;55.00;;;3.15;60.11;97609.00;5033906;28;20537;-69
2022/02/19 05:54:45;;;;;;;4.90;1.80;;;4.60;55.20;;;3.18;60.32;97628.13;5032618;28;20454;-71
2022/02/19 05:57:12;;;;;;;7.23;1.37;;;4.60;55.10;;;3.13;60.02;97622.50;5032334;28;20442;-72
2022/02/19 05:59:39;;;;;;;7.60;1.73;;;4.60;55.20;;;2.97;60.72;97600.25;5033648;28;21009;-71
2022/02/19 06:02:06;;;;;;;7.43;1.37;;;4.50;55.40;;;3.02;61.23;97641.59;5033512;28;20850;-70
2022/02/19 06:04:33;;;;;;;5.83;1.50;;;4.50;55.90;;;2.97;61.28;97640.28;5033194;28;20980;-70
2022/02/19 06:07:01;;;;;;;7.87;2.30;;;4.40;55.60;;;2.98;61.30;97646.47;5032461;28;20480;-72
2022/02/19 06:09:29;;;;;;;10.83;2.13;;;4.40;55.70;;;2.54;61.16;97581.16;5033647;28;20438;-72
2022/02/19 06:11:56;;;;;;;6.33;1.67;;;4.40;55.60;;;2.92;60.73;97642.66;5033878;28;20470;-74
2022/02/19 06:14:22;;;;;;;5.20;1.47;;;4.40;55.60;;;2.94;60.82;97650.47;5033534;28;20522;-73
2022/02/19 06:16:50;;;;;;;7.70;1.83;;;4.40;55.80;;;2.93;61.24;97652.31;5032138;28;20509;-72
2022/02/19 06:19:17;;;;;;;5.03;1.30;;;4.40;55.60;;;2.91;61.35;97675.69;5034225;28;20773;-71
2022/02/19 06:21:44;;;;;;;5.87;1.83;;;4.40;55.60;;;2.93;61.01;97686.19;5033627;28;20434;-70
2022/02/19 06:24:12;;;;;;;10.93;1.97;;;4.40;55.60;;;2.79;61.18;97659.22;5033692;28;20438;-71
2022/02/19 06:26:39;;;;;;;4.23;1.83;;;4.40;55.80;;;2.89;60.76;97695.53;5032477;28;20856;-71
2022/02/19 06:29:06;;;;;;;3.70;1.33;;;4.30;55.60;;;2.89;61.00;97706.22;5033457;28;20435;-71
2022/02/19 06:31:33;;;;;;;4.23;1.40;;;4.30;55.60;;;3.01;61.11;97704.84;5032208;28;20535;-76
2022/02/19 06:34:00;;;;;;;7.53;2.10;;;4.40;55.60;;;2.94;61.30;97703.84;5033533;28;20485;-78
2022/02/19 06:36:27;;;;;;;8.87;2.17;;;4.40;55.80;;;2.89;61.45;97717.75;5034463;28;20480;-78
2022/02/19 06:38:54;;;;;;;7.33;1.50;;;4.30;55.90;;;2.72;61.80;97706.28;5033973;28;20509;-77
2022/02/19 06:41:23;;;;;;;5.27;1.40;;;4.30;56.00;;;2.85;61.30;97720.94;5032411;28;20532;-77
2022/02/19 06:43:49;;;;;;;6.70;1.50;;;4.30;56.00;;;2.86;61.75;97739.41;5036795;28;20462;-77
2022/02/19 06:46:16;;;;;;;5.90;1.37;;;4.20;56.00;;;2.75;62.27;97748.63;5040729;28;20473;-77
2022/02/19 06:48:44;;;;;;;3.80;1.37;;;4.20;56.20;;;2.82;61.61;97749.63;5033475;28;20520;-79
2022/02/19 06:51:11;;;;;;;10.77;1.70;;;4.20;56.00;;;2.85;60.98;97759.09;5033292;28;20838;-81
2022/02/19 06:53:38;;;;;;;12.80;2.40;;;4.30;56.20;;;2.41;61.50;97696.41;5038758;28;20449;-80
2022/02/19 06:56:05;;;;;;;5.07;1.50;;;4.20;56.00;;;2.85;61.50;97776.97;5036383;28;20438;-78
2022/02/19 06:58:34;;;;;;;6.60;2.53;;;4.30;55.90;;;2.86;61.47;97770.63;5035890;28;20460;-78
2022/02/19 07:01:01;;;;;;;4.60;1.50;;;4.30;55.90;;;2.83;61.48;97777.97;5035537;28;20529;-81
2022/02/19 07:03:28;;;;;;;4.60;1.80;;;4.30;56.00;;;2.99;61.37;97786.91;5035930;28;20533;-79
2022/02/19 07:05:54;;;;;;;7.00;1.87;;;4.40;56.00;;;3.09;61.10;97798.22;5035824;28;20435;-77
2022/02/19 07:08:22;;;;;;;7.17;1.10;;;4.50;55.90;;;3.22;62.19;97791.50;5037803;28;20471;-81
2022/02/19 07:10:49;;;;;;;9.67;1.80;;;4.60;56.80;;;3.27;61.46;97789.16;5035376;28;20972;-81
2022/02/19 07:13:18;;;;;;;5.60;1.67;;;4.70;56.70;;;3.12;61.00;97813.06;5036315;28;20427;-82
2022/02/19 07:15:46;;;;;;;2.70;1.17;;;4.60;56.00;;;3.16;61.12;97808.22;5037602;28;20514;-82
2022/02/19 07:18:13;;;;;;;5.20;2.00;;;4.60;56.10;;;2.88;61.44;97803.31;5037636;28;20439;-81
2022/02/19 07:20:40;;;;;;;9.13;1.80;;;4.50;56.00;;;2.98;61.95;97806.63;5035879;28;20529;-81
2022/02/19 07:23:07;;;;;;;4.53;1.17;;;4.40;56.40;;;3.02;62.11;97823.09;5035495;28;20446;-81
2022/02/19 07:25:34;;;;;;;7.77;2.00;;;4.50;56.50;;;2.95;61.53;97817.59;5035817;28;20553;-81
2022/02/19 07:28:02;;;;;;;5.83;1.10;;;4.50;56.40;;;3.01;61.10;97832.97;5036887;28;20551;-82
2022/02/19 07:30:29;;;;;;;6.43;1.90;;;4.50;56.00;;;3.15;61.62;97836.72;5037997;28;20512;-81
2022/02/19 07:32:58;;;;;;;6.20;1.80;;;4.60;56.40;;;3.05;60.83;97844.94;5037438;28;20442;-82
2022/02/19 07:35:26;;;;;;;6.13;1.70;;;4.50;56.20;;;3.15;60.85;97849.28;5036899;28;20434;-82
2022/02/19 07:37:53;;;;;;;8.53;1.70;;;4.60;55.90;;;3.23;60.50;97865.25;5037006;28;20451;-77
2022/02/19 07:40:20;;;;;;;7.20;2.00;;;4.70;55.80;;;3.37;60.34;97864.53;5035208;28;20452;-78
2022/02/19 07:42:47;;;;;;;8.90;2.27;;;4.80;55.70;;;3.54;59.51;97870.66;5035249;28;20447;-79
2022/02/19 07:45:14;;;;;;;5.70;1.50;;;4.90;55.50;;;3.51;59.56;97873.66;5035601;28;20454;-80
2022/02/19 07:47:41;;;;;;;5.70;1.53;;;5.00;55.00;;;3.56;59.40;97888.34;5036344;28;20466;-80
2022/02/19 07:58:29;;;;;;;5.73;1.30;;;5.20;54.50;;;3.76;57.89;97900.25;5051512;28;20804;-79
2022/02/19 08:00:59;;;;;;;6.07;1.40;;;5.20;54.50;;;3.78;57.95;97914.28;5038130;28;20435;-80
2022/02/19 08:03:28;;;;;;;2.87;1.23;;;5.20;54.40;;;3.89;58.71;97907.72;5035858;28;20431;-80
2022/02/19 08:05:57;;;;;;;5.80;1.50;;;5.30;54.70;;;3.89;57.95;97904.22;5050672;28;20504;-79
2022/02/19 08:08:24;;;;;;;9.77;1.67;;;5.30;54.40;;;3.59;59.20;97883.50;5036436;28;20512;-78
2022/02/19 08:10:52;;;;;;;6.70;1.77;;;5.20;54.70;;;3.67;58.94;97907.47;5035769;28;20432;-81
2022/02/19 08:13:21;;;;;;;3.37;1.40;;;5.20;54.50;;;3.54;59.52;97907.19;5035686;28;20434;-79
2022/02/19 08:15:49;;;;;;;5.13;1.60;;;5.00;54.80;;;3.61;59.28;97910.84;5035748;28;20438;-78
2022/02/19 08:18:16;;;;;;;6.03;1.27;;;5.00;55.00;;;3.68;58.90;97911.81;5035552;28;20937;-80
2022/02/19 08:20:46;;;;;;;5.10;1.53;;;5.10;54.90;;;3.62;59.37;97920.53;5035554;28;20526;-79
2022/02/19 08:23:16;;;;;;;5.07;1.77;;;5.10;54.90;;;3.64;59.36;97915.00;5034661;28;20435;-78
2022/02/19 08:25:44;;;;;;;7.03;1.23;;;5.10;54.90;;;3.30;58.26;97846.69;5036329;28;20485;-79
2022/02/19 08:28:11;;;;;;;4.20;1.33;;;5.20;54.70;;;3.94;58.33;97929.41;5036011;28;20477;-81
2022/02/19 08:30:41;;;;;;;6.37;1.70;;;5.30;54.60;;;4.21;57.67;97947.81;5034794;28;20524;-78
2022/02/19 08:33:10;;;;;;;7.67;1.63;;;5.50;54.70;;;4.19;57.29;97948.00;5036551;28;20469;-79
2022/02/19 08:35:38;;;;;;;5.23;1.23;;;5.60;54.50;;;4.27;56.47;97949.78;5035758;28;20439;-78
2022/02/19 08:38:07;;;;;;;5.63;1.63;;;5.70;54.00;;;4.35;56.73;97948.91;5035920;28;20545;-77
2022/02/19 08:40:35;;;;;;;7.50;1.50;;;5.70;54.10;;;4.40;56.85;97949.19;5035517;28;20435;-79
2022/02/19 08:43:03;;;;;;;12.50;2.20;;;5.80;54.00;;;4.03;57.04;97884.75;5035294;28;20925;-78
2022/02/19 08:45:30;;;;;;;5.17;1.53;;;5.80;54.10;;;4.37;55.96;97966.44;5036003;28;20449;-79
2022/02/19 08:48:01;;;;;;;3.67;1.03;;;5.80;53.50;;;4.28;57.13;97969.34;5034915;28;20470;-78
2022/02/19 08:50:30;;;;;;;2.40;1.20;;;5.70;53.70;;;4.33;56.22;97973.16;5035371;28;20470;-77
2022/02/19 08:52:57;;;;;;;4.63;1.30;;;5.80;53.70;;;4.49;56.61;97982.94;5050256;28;20485;-78
2022/02/19 08:55:25;;;;;;;3.87;0.90;;;5.90;53.80;;;4.49;56.17;97987.44;5034011;28;20474;-78
2022/02/19 08:57:53;;;;;;;5.60;1.30;;;5.90;53.30;;;4.36;56.04;97980.00;5035735;28;20478;-78
2022/02/19 09:00:21;;;;;;;8.63;1.40;;;5.90;53.50;;;4.46;55.55;97983.25;5034779;28;20830;-88
2022/02/19 09:02:48;;;;;;;4.80;1.27;;;5.90;53.20;;;4.15;55.57;97945.84;5034992;28;20439;-84
2022/02/19 09:05:17;;;;;;;5.77;1.80;;;5.90;53.00;;;4.65;55.32;98002.56;5036074;28;20461;-83
2022/02/19 09:07:45;;;;;;;8.17;3.40;;;6.00;53.20;;;4.68;55.25;97972.75;5036636;28;20557;-81
2022/02/19 09:10:14;;;;;;;4.73;1.70;;;6.10;53.50;;;4.80;55.17;97992.75;5038812;28;20438;-83
2022/02/19 09:12:46;;;;;;;6.27;1.90;;;6.20;53.20;;;4.66;54.29;97997.03;5035206;28;20518;-85
2022/02/19 09:15:16;;;;;;;4.97;1.33;;;6.20;52.20;;;4.20;54.52;97944.31;5036100;28;20431;-88
2022/02/19 09:17:43;;;;;;;3.60;1.83;;;6.00;52.40;;;4.65;54.52;98015.94;5036342;28;20434;-84
2022/02/19 09:20:12;;;;;;;4.17;1.33;;;6.10;52.30;;;4.92;54.02;98038.69;5038510;28;20489;-88
2022/02/19 09:22:40;;;;;;;3.07;1.10;;;6.20;52.60;;;4.94;53.65;98025.13;5040349;28;20488;-87
2022/02/19 09:25:09;;;;;;;5.33;1.50;;;6.30;51.90;;;4.91;54.17;98036.16;5039387;28;20445;-87
2022/02/19 09:27:36;;;;;;;6.50;1.70;;;6.30;51.80;;;5.08;53.51;98029.69;5062959;28;21052;-85
2022/02/19 09:30:06;;;;;;;6.13;1.40;;;6.40;51.90;;;5.26;52.67;98039.25;5054825;28;20450;-87
2022/02/19 09:32:35;;;;;;;9.30;2.37;;;6.60;51.90;;;4.99;54.11;98032.59;5057822;28;20466;-88
2022/02/19 09:35:02;;;;;;;5.60;1.40;;;6.50;52.00;;;4.92;53.24;98027.97;5074035;28;20506;-85
2022/02/19 09:37:29;;;;;;;4.03;1.30;;;6.40;51.70;;;4.60;52.63;98037.03;5057754;28;20453;-87
2022/02/19 09:39:57;;;;;;;3.63;1.27;;;6.10;50.70;;;4.57;54.28;98035.56;5057891;28;20473;-85
2022/02/19 09:42:25;;;;;;;5.07;1.37;;;5.90;51.30;;;4.74;52.59;98052.34;5057560;28;20454;-86
2022/02/19 09:44:54;;;;;;;5.13;1.47;;;6.10;51.20;;;4.77;51.62;98051.97;5043937;28;20458;-87
2022/02/19 09:47:26;;;;;;;3.83;1.20;;;6.20;50.50;;;4.70;52.44;98050.19;5038062;28;20489;-87
2022/02/19 09:49:55;;;;;;;4.10;1.03;;;6.10;50.20;;;4.79;52.43;98043.78;5038199;28;20537;-87
2022/02/19 09:52:24;;;;;;;4.20;1.20;;;6.20;50.80;;;4.75;52.28;98054.00;5037022;28;20516;-85
2022/02/19 09:54:52;;;;;;;4.00;1.60;;;6.20;50.40;;;5.12;51.34;98064.16;5039328;28;20426;-87
2022/02/19 09:57:19;;;;;;;5.40;1.60;;;6.40;50.40;;;5.17;50.22;98034.97;5039137;28;20443;-87
2022/02/19 09:59:46;;;;;;;4.57;1.90;;;6.60;49.60;;;5.16;49.94;98062.75;5037720;28;20940;-86
2022/02/19 10:02:13;;;;;;;3.70;1.20;;;6.60;49.10;;;4.71;49.98;97987.63;5036090;28;20450;-88
2022/02/19 10:04:45;;;;;;;8.17;1.50;;;6.50;49.20;;;5.35;48.94;98059.59;5035915;28;20453;-86
2022/02/19 10:07:15;;;;;;;2.10;0.77;;;6.70;49.00;;;5.32;50.23;98065.31;5035882;28;20465;-87
2022/02/19 10:09:45;;;;;;;6.57;0.93;;;6.70;49.50;;;5.25;50.64;98077.78;5036755;28;20458;-85
2022/02/19 10:12:16;;;;;;;2.20;1.10;;;6.60;49.70;;;5.09;50.53;98071.53;5037074;28;20431;-83
2022/02/19 10:14:44;;;;;;;5.03;1.43;;;6.60;49.60;;;5.20;50.75;98072.94;5037148;28;20466;-79
2022/02/19 10:17:16;;;;;;;7.10;1.90;;;6.60;49.30;;;5.09;50.35;98070.69;5055232;28;20540;-73
2022/02/19 10:19:54;;;;;;;5.73;2.00;;;6.50;49.40;;;5.28;50.91;98066.69;5033624;28;20533;-73
2022/02/19 10:22:26;;;;;;;9.00;1.40;;;6.60;49.40;;;5.52;49.15;98071.00;5031758;28;20442;-72
2022/02/19 10:24:56;;;;;;;8.27;1.30;;;6.80;49.30;;;5.49;50.54;98067.84;5033622;28;20476;-71
2022/02/19 10:27:24;;;;;;;4.73;1.13;;;6.80;49.50;;;5.52;49.60;98064.78;5033287;28;20497;-71
2022/02/19 10:29:54;;;;;;;6.13;2.13;;;6.90;49.30;;;5.68;48.92;98082.59;5036107;28;20851;-72
2022/02/19 10:32:22;;;;;;;5.53;1.83;;;7.00;49.00;;;5.62;49.54;98077.97;5035640;28;20438;-71
2022/02/19 10:34:58;;;;;;;2.30;1.40;;;7.00;48.90;;;5.74;48.93;98081.84;5037236;28;20445;-72
2022/02/19 10:37:29;;;;;;;2.83;0.90;;;7.00;48.90;;;5.42;48.62;98085.69;5036938;28;20528;-72
2022/02/19 10:40:01;;;;;;;2.90;1.07;;;6.90;48.10;;;5.46;49.25;98073.56;5037187;28;20521;-72
2022/02/19 10:42:34;;;;;;;2.37;0.90;;;6.80;48.60;;;5.41;48.86;98067.94;5052474;28;20509;-74